createdAt,value
2018-11-28T00:02:08.168Z,19.10
2018-11-28T00:04:36.304Z,17.73
2018-11-28T00:07:04.856Z,16.43
2018-11-28T00:09:33.142Z,16.77
2018-11-28T00:12:01.260Z,17.63
2018-11-28T00:14:29.312Z,15.90
2018-11-28T00:16:57.455Z,17.87
2018-11-28T00:19:25.799Z,18.90
2018-11-28T00:21:54.260Z,19.30
2018-11-28T00:24:22.440Z,16.77
2018-11-28T00:26:50.484Z,16.10
2018-11-28T00:29:18.570Z,16.87
2018-11-28T00:31:46.665Z,17.47
2018-11-28T00:34:14.715Z,16.47
2018-11-28T00:36:42.833Z,15.67
2018-11-28T00:39:10.899Z,14.60
2018-11-28T00:41:39.140Z,13.73
2018-11-28T00:44:07.337Z,16.17
2018-11-28T00:46:35.443Z,16.80
2018-11-28T00:49:03.592Z,16.13
2018-11-28T00:51:31.720Z,16.83
2018-11-28T00:53:59.825Z,17.60
2018-11-28T00:56:27.931Z,15.50
2018-11-28T00:58:56.168Z,17.50
2018-11-28T01:01:24.332Z,15.07
2018-11-28T01:03:52.517Z,16.70
2018-11-28T01:06:20.941Z,15.20
2018-11-28T01:08:49.788Z,18.03
2018-11-28T01:11:17.912Z,19.43
2018-11-28T01:13:46.043Z,18.73
2018-11-28T01:16:14.410Z,15.67
2018-11-28T01:18:42.499Z,22.63
2018-11-28T01:21:10.682Z,17.10
2018-11-28T01:23:38.738Z,15.17
2018-11-28T01:26:07.029Z,20.97
2018-11-28T01:28:35.069Z,17.23
2018-11-28T01:31:03.188Z,14.87
2018-11-28T01:33:31.252Z,21.10
2018-11-28T01:35:59.320Z,29.73
2018-11-28T01:38:27.376Z,16.83
2018-11-28T01:40:55.432Z,18.60
2018-11-28T01:43:23.519Z,16.87
2018-11-28T01:45:51.588Z,18.67
2018-11-28T01:48:19.640Z,19.17
2018-11-28T01:50:47.691Z,14.60
2018-11-28T01:53:15.747Z,14.50
2018-11-28T01:55:43.844Z,17.67
2018-11-28T01:58:11.927Z,23.20
2018-11-28T02:00:39.998Z,23.03
2018-11-28T02:03:08.087Z,14.50
2018-11-28T02:05:36.148Z,18.03
2018-11-28T02:08:04.236Z,17.27
2018-11-28T02:10:32.323Z,19.73
2018-11-28T02:13:00.380Z,16.93
2018-11-28T02:15:28.694Z,16.90
2018-11-28T02:17:57.532Z,12.90
2018-11-28T02:20:26.198Z,12.20
2018-11-28T02:22:54.295Z,17.30
2018-11-28T02:25:22.353Z,18.70
2018-11-28T02:27:50.435Z,16.13
2018-11-28T02:30:19.552Z,14.63
2018-11-28T02:32:48.277Z,14.20
2018-11-28T02:35:16.964Z,13.93
2018-11-28T02:37:45.040Z,14.20
2018-11-28T02:40:15.865Z,11.20
2018-11-28T02:42:44.317Z,16.63
2018-11-28T02:45:14.273Z,12.90
2018-11-28T02:47:42.360Z,12.33
2018-11-28T02:50:10.428Z,16.07
2018-11-28T02:52:38.476Z,16.97
2018-11-28T02:55:10.230Z,14.67
2018-11-28T02:57:38.640Z,14.30
2018-11-28T03:00:37.628Z,13.60
2018-11-28T03:03:05.839Z,15.03
2018-11-28T03:05:34.023Z,15.23
2018-11-28T03:08:02.142Z,16.40
2018-11-28T03:10:30.268Z,18.60
2018-11-28T03:12:58.381Z,11.17
2018-11-28T03:15:28.025Z,23.80
2018-11-28T03:17:56.127Z,13.27
2018-11-28T03:20:24.437Z,13.23
2018-11-28T03:22:52.546Z,16.33
2018-11-28T03:25:20.856Z,14.43
2018-11-28T03:27:48.961Z,15.77
2018-11-28T03:30:17.092Z,12.40
2018-11-28T03:32:45.663Z,16.50
2018-11-28T03:35:14.844Z,15.67
2018-11-28T03:37:43.144Z,16.57
2018-11-28T03:40:11.633Z,13.37
2018-11-28T03:42:39.957Z,14.27
2018-11-28T03:45:11.275Z,19.60
2018-11-28T03:47:39.364Z,17.90
2018-11-28T03:50:08.951Z,14.90
2018-11-28T03:52:37.759Z,13.47
2018-11-28T03:55:07.792Z,13.27
2018-11-28T03:57:35.879Z,13.03
2018-11-28T04:00:06.708Z,14.30
2018-11-28T04:02:34.847Z,10.93
2018-11-28T04:05:02.926Z,17.47
2018-11-28T04:07:31.074Z,14.43
2018-11-28T04:09:59.231Z,15.03
2018-11-28T04:12:27.362Z,16.53
2018-11-28T04:14:55.430Z,14.13
2018-11-28T04:17:23.547Z,15.63
2018-11-28T04:19:51.627Z,14.77
2018-11-28T04:22:19.749Z,20.50
2018-11-28T04:24:47.955Z,17.87
2018-11-28T04:27:16.139Z,16.97
2018-11-28T04:29:44.201Z,15.97
2018-11-28T04:32:12.485Z,14.87
2018-11-28T04:34:40.618Z,17.00
2018-11-28T04:37:09.336Z,14.77
2018-11-28T04:39:37.440Z,13.60
2018-11-28T04:42:05.841Z,16.03
2018-11-28T04:44:33.923Z,12.90
2018-11-28T04:47:02.044Z,13.70
2018-11-28T04:49:30.111Z,17.57
2018-11-28T04:51:58.275Z,17.23
2018-11-28T04:54:26.368Z,17.20
2018-11-28T04:56:54.519Z,16.90
2018-11-28T04:59:22.592Z,17.27
2018-11-28T05:01:50.719Z,15.20
2018-11-28T05:04:18.852Z,15.73
2018-11-28T05:07:50.752Z,15.00
2018-11-28T05:10:24.571Z,12.80
2018-11-28T05:12:53.148Z,15.00
2018-11-28T05:15:22.259Z,12.10
2018-11-28T05:17:51.239Z,21.50
2018-11-28T05:20:27.558Z,16.63
2018-11-28T05:22:55.633Z,23.77
2018-11-28T05:25:24.741Z,17.77
2018-11-28T05:27:53.787Z,13.17
2018-11-28T05:30:24.656Z,13.80
2018-11-28T05:32:52.708Z,15.73
2018-11-28T05:35:23.183Z,14.70
2018-11-28T05:37:51.256Z,13.57
2018-11-28T05:40:22.916Z,16.10
2018-11-28T05:42:51.262Z,13.03
2018-11-28T05:45:19.477Z,13.33
2018-11-28T05:47:47.672Z,14.47
2018-11-28T05:50:16.928Z,14.33
2018-11-28T05:52:45.001Z,18.67
2018-11-28T05:55:13.807Z,14.00
2018-11-28T05:57:41.908Z,11.40
2018-11-28T06:00:11.769Z,15.07
2018-11-28T06:02:40.184Z,15.13
2018-11-28T06:05:09.534Z,13.57
2018-11-28T06:07:37.654Z,15.80
2018-11-28T06:10:07.407Z,11.97
2018-11-28T06:12:35.576Z,15.23
2018-11-28T06:15:03.823Z,13.30
2018-11-28T06:17:31.897Z,15.13
2018-11-28T06:20:08.020Z,14.70
2018-11-28T06:22:36.173Z,13.57
2018-11-28T06:25:04.792Z,13.43
2018-11-28T06:27:32.880Z,24.70
2018-11-28T06:30:00.975Z,15.57
2018-11-28T06:32:29.060Z,13.57
2018-11-28T06:34:57.162Z,14.13
2018-11-28T06:37:25.267Z,16.20
2018-11-28T06:39:53.367Z,12.60
2018-11-28T06:42:21.483Z,20.00
2018-11-28T06:44:49.703Z,16.90
2018-11-28T06:47:17.776Z,13.67
2018-11-28T06:49:45.877Z,14.10
2018-11-28T06:52:13.984Z,14.77
2018-11-28T06:54:42.312Z,18.83
2018-11-28T06:57:10.353Z,16.10
2018-11-28T06:59:38.536Z,18.90
2018-11-28T07:02:06.512Z,13.10
2018-11-28T07:04:34.571Z,18.70
2018-11-28T07:07:02.688Z,14.30
2018-11-28T07:09:30.758Z,11.20
2018-11-28T07:11:58.804Z,20.37
2018-11-28T07:14:26.881Z,21.70
2018-11-28T07:16:54.942Z,10.23
2018-11-28T07:19:23.731Z,14.07
2018-11-28T07:21:51.801Z,13.20
2018-11-28T07:24:19.874Z,14.63
2018-11-28T07:26:47.940Z,14.10
2018-11-28T07:29:16.016Z,17.53
2018-11-28T07:31:44.107Z,15.17
2018-11-28T07:34:12.157Z,12.40
2018-11-28T07:36:40.211Z,13.33
2018-11-28T07:39:08.359Z,13.83
2018-11-28T07:41:36.415Z,13.10
2018-11-28T07:44:04.659Z,14.03
2018-11-28T07:46:32.720Z,12.57
2018-11-28T07:49:00.772Z,19.80
2018-11-28T07:51:28.847Z,22.17
2018-11-28T07:53:56.927Z,14.80
2018-11-28T07:56:24.989Z,17.13
2018-11-28T07:58:53.035Z,13.03
2018-11-28T08:01:21.104Z,16.77
2018-11-28T08:03:49.596Z,11.33
2018-11-28T08:06:17.301Z,12.23
2018-11-28T08:08:45.352Z,33.20
2018-11-28T08:11:13.434Z,15.90
2018-11-28T08:13:41.498Z,11.30
2018-11-28T08:16:09.548Z,12.67
2018-11-28T08:18:37.614Z,17.33
2018-11-28T08:21:05.992Z,13.20
2018-11-28T08:23:34.048Z,15.73
2018-11-28T08:26:02.116Z,13.07
2018-11-28T08:28:30.265Z,14.10
2018-11-28T08:30:58.330Z,15.50
2018-11-28T08:33:26.393Z,12.80
2018-11-28T08:35:54.447Z,14.33
2018-11-28T08:38:23.480Z,14.30
2018-11-28T08:40:51.535Z,14.83
2018-11-28T08:43:19.582Z,16.70
2018-11-28T08:45:47.680Z,16.47
2018-11-28T08:48:18.415Z,17.03
2018-11-28T08:50:46.840Z,16.80
2018-11-28T08:53:14.929Z,18.93
2018-11-28T08:55:42.979Z,16.63
2018-11-28T08:58:11.086Z,16.07
2018-11-28T09:00:39.148Z,15.70
2018-11-28T09:03:07.403Z,15.40
2018-11-28T09:05:35.664Z,14.30
2018-11-28T09:08:03.741Z,14.67
2018-11-28T09:10:31.779Z,14.30
2018-11-28T09:13:04.207Z,25.83
2018-11-28T09:15:29.012Z,16.13
2018-11-28T09:17:57.387Z,18.57
2018-11-28T09:20:25.441Z,18.73
2018-11-28T09:22:53.539Z,25.63
2018-11-28T09:25:21.788Z,18.33
2018-11-28T09:27:51.137Z,12.50
2018-11-28T09:30:19.686Z,19.80
2018-11-28T09:32:48.621Z,29.67
2018-11-28T09:35:17.043Z,21.87
2018-11-28T09:37:45.936Z,20.83
2018-11-28T09:40:15.250Z,19.33
2018-11-28T09:42:43.313Z,21.23
2018-11-28T09:45:12.620Z,30.13
2018-11-28T09:47:40.727Z,21.77
2018-11-28T09:50:10.749Z,22.30
2018-11-28T09:52:38.861Z,27.87
2018-11-28T09:55:08.706Z,26.90
2018-11-28T09:57:36.795Z,34.43
2018-11-28T10:00:07.236Z,27.57
2018-11-28T10:02:35.328Z,30.80
2018-11-28T10:05:03.551Z,28.83
2018-11-28T10:07:31.492Z,30.53
2018-11-28T10:09:59.573Z,32.60
2018-11-28T10:12:27.665Z,31.37
2018-11-28T10:14:55.724Z,26.37
2018-11-28T10:17:23.780Z,34.33
2018-11-28T10:19:51.869Z,32.63
2018-11-28T10:22:20.155Z,31.70
2018-11-28T10:24:48.227Z,34.20
2018-11-28T10:27:16.284Z,45.53
2018-11-28T10:29:44.333Z,37.60
2018-11-28T10:32:12.392Z,39.20
2018-11-28T10:34:40.443Z,42.57
2018-11-28T10:37:08.564Z,51.40
2018-11-28T10:39:36.635Z,46.57
2018-11-28T10:42:04.832Z,46.80
2018-11-28T10:44:32.883Z,51.70
2018-11-28T10:47:00.927Z,42.30
2018-11-28T10:49:29.042Z,46.47
2018-11-28T10:51:57.120Z,53.80
2018-11-28T10:54:25.188Z,48.87
2018-11-28T10:56:53.250Z,49.53
2018-11-28T10:59:21.360Z,56.73
2018-11-28T11:01:56.547Z,55.13
2018-11-28T11:04:25.541Z,64.50
2018-11-28T11:09:05.504Z,62.17
2018-11-28T11:11:38.940Z,51.67
2018-11-28T11:14:12.559Z,61.73
2018-11-28T11:16:40.601Z,61.00
2018-11-28T11:19:08.676Z,59.53
2018-11-28T11:21:36.724Z,61.50
2018-11-28T11:24:05.135Z,58.27
2018-11-28T11:26:33.183Z,62.77
2018-11-28T11:29:01.252Z,53.10
2018-11-28T11:31:29.301Z,63.33
2018-11-28T11:33:57.410Z,57.23
2018-11-28T11:36:25.502Z,57.20
2018-11-28T11:38:53.548Z,56.60
2018-11-28T11:41:21.663Z,58.77
2018-11-28T11:43:49.728Z,65.03
2018-11-28T11:46:17.788Z,55.63
2018-11-28T11:48:45.855Z,65.40
2018-11-28T11:51:13.916Z,52.20
2018-11-28T11:53:41.992Z,52.77
2018-11-28T11:56:10.177Z,54.30
2018-11-28T11:58:38.585Z,54.57
2018-11-28T12:01:06.952Z,57.43
2018-11-28T12:03:34.979Z,61.17
2018-11-28T12:06:03.584Z,54.30
2018-11-28T12:08:31.651Z,56.60
2018-11-28T12:10:59.733Z,61.37
2018-11-28T12:13:27.795Z,63.13
2018-11-28T12:15:55.873Z,52.47
2018-11-28T12:18:24.825Z,53.57
2018-11-28T12:20:57.608Z,53.10
2018-11-28T12:23:25.692Z,52.97
2018-11-28T12:25:53.749Z,55.10
2018-11-28T12:28:22.465Z,50.67
2018-11-28T12:30:50.522Z,52.30
2018-11-28T12:33:18.565Z,57.27
2018-11-28T12:35:46.662Z,49.43
2018-11-28T12:38:14.763Z,53.77
2018-11-28T12:40:42.872Z,51.37
2018-11-28T12:43:10.920Z,49.23
2018-11-28T12:45:42.540Z,52.07
2018-11-28T12:48:10.594Z,50.50
2018-11-28T12:50:38.665Z,42.83
2018-11-28T12:53:08.068Z,52.10
2018-11-28T12:55:37.019Z,48.20
2018-11-28T12:58:07.660Z,52.03
2018-11-28T13:00:35.882Z,49.40
2018-11-28T13:03:04.724Z,52.90
2018-11-28T13:05:32.802Z,62.00
2018-11-28T13:08:00.904Z,44.60
2018-11-28T13:10:31.768Z,43.80
2018-11-28T13:12:59.879Z,49.33
2018-11-28T13:15:27.957Z,39.90
2018-11-28T13:17:56.096Z,46.53
2018-11-28T13:20:24.328Z,43.47
2018-11-28T13:22:53.471Z,45.03
2018-11-28T13:25:23.038Z,50.50
2018-11-28T13:27:51.584Z,50.83
2018-11-28T13:30:20.452Z,49.47
2018-11-28T13:32:49.218Z,45.30
2018-11-28T13:35:24.313Z,46.87
2018-11-28T13:37:53.737Z,48.77
2018-11-28T13:40:21.823Z,49.03
2018-11-28T13:42:49.879Z,49.67
2018-11-28T13:45:23.199Z,42.63
2018-11-28T13:47:52.275Z,42.40
2018-11-28T13:50:20.387Z,50.87
2018-11-28T13:52:48.907Z,53.43
2018-11-28T13:55:38.548Z,50.00
2018-11-28T13:57:49.836Z,42.00
2018-11-28T14:00:17.967Z,42.30
2018-11-28T14:02:46.036Z,40.50
2018-11-28T14:05:14.294Z,44.27
2018-11-28T14:07:42.364Z,55.17
2018-11-28T14:10:12.427Z,44.00
2018-11-28T14:12:40.543Z,44.90
2018-11-28T14:15:13.165Z,41.83
2018-11-28T14:17:41.475Z,45.03
2018-11-28T14:20:10.560Z,44.90
2018-11-28T14:22:39.748Z,41.80
2018-11-28T14:25:09.134Z,39.63
2018-11-28T14:27:37.256Z,47.00
2018-11-28T14:30:11.984Z,46.47
2018-11-28T14:32:40.052Z,38.87
2018-11-28T14:35:09.348Z,39.97
2018-11-28T14:37:37.444Z,37.60
2018-11-28T14:40:09.881Z,41.10
2018-11-28T14:42:37.977Z,38.97
2018-11-28T14:45:08.866Z,38.83
2018-11-28T14:47:36.957Z,42.67
2018-11-28T14:50:07.631Z,42.83
2018-11-28T14:52:35.700Z,45.07
2018-11-28T14:55:04.195Z,42.73
2018-11-28T14:57:32.251Z,42.40
2018-11-28T15:00:00.361Z,41.27
2018-11-28T15:02:28.435Z,50.63
2018-11-28T15:04:56.519Z,38.60
2018-11-28T15:07:25.125Z,41.83
2018-11-28T15:09:58.440Z,45.27
2018-11-28T15:12:27.679Z,41.47
2018-11-28T15:14:55.752Z,40.27
2018-11-28T15:17:23.827Z,39.53
2018-11-28T15:19:51.933Z,48.03
2018-11-28T15:22:20.039Z,39.17
2018-11-28T15:24:48.093Z,38.17
2018-11-28T15:27:16.175Z,43.93
2018-11-28T15:29:44.243Z,42.13
2018-11-28T15:32:12.331Z,37.37
2018-11-28T15:34:40.416Z,48.40
2018-11-28T15:37:08.472Z,45.70
2018-11-28T15:39:36.592Z,39.57
2018-11-28T15:42:04.642Z,44.63
2018-11-28T15:44:32.944Z,47.20
2018-11-28T15:47:01.016Z,46.07
2018-11-28T15:49:29.116Z,49.53
2018-11-28T15:51:57.211Z,42.23
2018-11-28T15:54:25.273Z,43.63
2018-11-28T15:56:53.336Z,48.90
2018-11-28T15:59:21.404Z,48.13
2018-11-28T16:01:49.462Z,44.97
2018-11-28T16:04:17.528Z,47.50
2018-11-28T16:06:45.587Z,43.67
2018-11-28T16:09:19.193Z,44.00
2018-11-28T16:11:47.253Z,50.77
2018-11-28T16:14:15.322Z,41.73
2018-11-28T16:16:43.381Z,49.73
2018-11-28T16:19:11.453Z,48.73
2018-11-28T16:21:39.579Z,41.80
2018-11-28T16:24:07.651Z,52.57
2018-11-28T16:26:35.732Z,45.03
2018-11-28T16:29:03.825Z,49.00
2018-11-28T16:31:31.979Z,41.73
2018-11-28T16:34:00.147Z,44.57
2018-11-28T16:36:28.236Z,39.80
2018-11-28T16:38:56.308Z,48.50
2018-11-28T16:41:24.438Z,46.00
2018-11-28T16:43:52.722Z,45.63
2018-11-28T16:46:20.841Z,49.33
2018-11-28T16:48:48.910Z,50.27
2018-11-28T16:51:16.979Z,43.53
2018-11-28T16:53:45.090Z,49.07
2018-11-28T16:56:13.475Z,47.97
2018-11-28T16:58:41.568Z,41.93
2018-11-28T17:01:09.633Z,53.00
2018-11-28T17:03:37.756Z,48.03
2018-11-28T17:06:05.875Z,54.50
2018-11-28T17:08:34.239Z,46.10
2018-11-28T17:11:02.357Z,56.10
2018-11-28T17:13:30.473Z,45.20
2018-11-28T17:15:58.636Z,48.10
2018-11-28T17:18:26.731Z,52.60
2018-11-28T17:20:54.892Z,43.77
2018-11-28T17:23:23.363Z,48.83
2018-11-28T17:25:51.627Z,48.87
2018-11-28T17:28:19.688Z,46.67
2018-11-28T17:30:47.882Z,47.00
2018-11-28T17:33:15.999Z,55.80
2018-11-28T17:35:44.111Z,60.97
2018-11-28T17:38:12.292Z,50.10
2018-11-28T17:40:40.331Z,54.60
2018-11-28T17:43:08.421Z,51.93
2018-11-28T17:45:36.523Z,40.40
2018-11-28T17:48:05.666Z,44.73
2018-11-28T17:50:34.124Z,40.13
2018-11-28T17:53:07.436Z,40.60
2018-11-28T17:55:46.964Z,44.47
2018-11-28T17:58:15.155Z,45.83
2018-11-28T18:00:45.195Z,47.33
2018-11-28T18:03:14.164Z,43.17
2018-11-28T18:05:43.744Z,49.67
2018-11-28T18:08:11.820Z,62.73
2018-11-28T18:10:39.859Z,41.47
2018-11-28T18:13:12.476Z,45.00
2018-11-28T18:15:40.896Z,45.60
2018-11-28T18:18:11.340Z,41.10
2018-11-28T18:20:39.433Z,42.27
2018-11-28T18:23:08.751Z,46.00
2018-11-28T18:25:37.352Z,43.53
2018-11-28T18:28:06.271Z,46.60
2018-11-28T18:30:34.401Z,44.73
2018-11-28T18:33:02.485Z,46.73
2018-11-28T18:35:30.536Z,47.10
2018-11-28T18:37:58.604Z,47.50
2018-11-28T18:40:26.760Z,46.00
2018-11-28T18:42:54.836Z,45.03
2018-11-28T18:45:24.496Z,61.23
2018-11-28T18:47:52.663Z,59.60
2018-11-28T18:50:20.758Z,50.73
2018-11-28T18:52:48.893Z,44.93
2018-11-28T18:55:18.068Z,56.20
2018-11-28T18:57:47.190Z,43.47
2018-11-28T19:00:19.318Z,48.13
2018-11-28T19:02:47.366Z,42.57
2018-11-28T19:05:15.439Z,43.83
2018-11-28T19:07:43.522Z,48.57
2018-11-28T19:10:13.868Z,40.53
2018-11-28T19:12:41.948Z,40.83
2018-11-28T19:15:12.378Z,45.90
2018-11-28T19:17:40.800Z,47.13
2018-11-28T19:20:14.783Z,49.70
2018-11-28T19:22:43.248Z,49.93
2018-11-28T19:25:15.375Z,40.40
2018-11-28T19:27:43.580Z,43.97
2018-11-28T19:30:14.359Z,38.30
2018-11-28T19:32:42.450Z,42.73
2018-11-28T19:35:11.201Z,41.20
2018-11-28T19:37:40.295Z,43.17
2018-11-28T19:40:13.903Z,44.93
2018-11-28T19:42:42.036Z,46.57
2018-11-28T19:45:10.215Z,44.37
2018-11-28T19:47:39.550Z,40.20
2018-11-28T19:50:11.520Z,37.30
2018-11-28T19:52:39.628Z,38.97
2018-11-28T19:55:08.660Z,44.83
2018-11-28T19:57:36.758Z,42.10
2018-11-28T20:00:15.587Z,38.57
2018-11-28T20:02:44.465Z,43.40
2018-11-28T20:05:12.568Z,40.23
2018-11-28T20:07:41.964Z,37.97
2018-11-28T20:10:12.467Z,37.27
2018-11-28T20:12:40.546Z,46.00
2018-11-28T20:15:11.237Z,52.90
2018-11-28T20:17:39.320Z,40.33
2018-11-28T20:20:09.475Z,48.10
2018-11-28T20:22:37.558Z,48.13
2018-11-28T20:25:08.572Z,43.50
2018-11-28T20:27:36.805Z,45.87
2018-11-28T20:30:17.211Z,47.63
2018-11-28T20:32:45.332Z,52.67
2018-11-28T20:35:13.789Z,41.43
2018-11-28T20:37:42.348Z,44.57
2018-11-28T20:40:16.458Z,42.10
2018-11-28T20:42:49.864Z,38.73
2018-11-28T20:45:18.188Z,51.17
2018-11-28T20:47:46.278Z,49.80
2018-11-28T20:50:17.009Z,48.90
2018-11-28T20:52:47.762Z,41.27
2018-11-28T20:55:16.076Z,43.30
2018-11-28T20:57:44.123Z,45.30
2018-11-28T21:00:15.540Z,45.00
2018-11-28T21:02:43.593Z,37.53
2018-11-28T21:05:12.581Z,36.20
2018-11-28T21:07:40.743Z,46.23
2018-11-28T21:10:16.568Z,45.00
2018-11-28T21:12:44.712Z,45.27
2018-11-28T21:15:12.817Z,46.43
2018-11-28T21:17:41.533Z,40.20
2018-11-28T21:20:15.677Z,43.17
2018-11-28T21:22:45.134Z,43.00
2018-11-28T21:25:13.252Z,52.60
2018-11-28T21:27:41.323Z,42.00
2018-11-28T21:30:12.523Z,47.50
2018-11-28T21:32:40.599Z,44.20
2018-11-28T21:35:13.152Z,49.50
2018-11-28T21:37:41.377Z,37.80
2018-11-28T21:40:10.029Z,43.47
2018-11-28T21:42:38.112Z,45.93
2018-11-28T21:45:09.001Z,45.73
2018-11-28T21:47:37.088Z,42.17
2018-11-28T21:50:07.572Z,43.03
2018-11-28T21:52:35.635Z,57.93
2018-11-28T21:55:03.955Z,41.70
2018-11-28T21:57:32.004Z,47.87
2018-11-28T22:00:00.146Z,42.37
2018-11-28T22:02:28.409Z,40.97
2018-11-28T22:04:56.455Z,48.73
2018-11-28T22:07:24.511Z,45.20
2018-11-28T22:09:52.596Z,42.80
2018-11-28T22:12:20.639Z,47.13
2018-11-28T22:14:48.686Z,45.63
2018-11-28T22:17:16.767Z,40.63
2018-11-28T22:19:44.828Z,42.97
2018-11-28T22:22:12.892Z,48.10
2018-11-28T22:24:40.974Z,43.27
2018-11-28T22:27:09.055Z,41.50
2018-11-28T22:29:37.132Z,44.27
2018-11-28T22:32:05.272Z,43.53
2018-11-28T22:34:33.429Z,42.00
2018-11-28T22:37:01.487Z,51.07
2018-11-28T22:39:29.687Z,39.97
2018-11-28T22:41:57.907Z,43.87
2018-11-28T22:44:25.971Z,40.83
2018-11-28T22:46:54.012Z,44.80
2018-11-28T22:49:22.096Z,39.93
2018-11-28T22:51:50.196Z,40.43
2018-11-28T22:54:18.243Z,44.43
2018-11-28T22:56:46.354Z,49.70
2018-11-28T22:59:14.400Z,44.07
2018-11-28T23:04:03.960Z,41.27
2018-11-28T23:06:32.039Z,40.47
2018-11-28T23:09:00.116Z,55.03
2018-11-28T23:11:28.204Z,42.87
2018-11-28T23:13:56.279Z,41.67
2018-11-28T23:16:24.359Z,50.43
2018-11-28T23:18:52.496Z,44.87
2018-11-28T23:21:20.567Z,43.87
2018-11-28T23:23:48.611Z,46.97
2018-11-28T23:26:16.703Z,40.10
2018-11-28T23:28:44.757Z,44.63
2018-11-28T23:31:12.805Z,62.93
2018-11-28T23:33:40.859Z,42.60
2018-11-28T23:36:09.598Z,43.40
2018-11-28T23:38:37.707Z,44.33
2018-11-28T23:41:05.967Z,37.47
2018-11-28T23:43:34.017Z,39.67
2018-11-28T23:46:02.086Z,52.33
2018-11-28T23:48:31.040Z,38.90
2018-11-28T23:50:59.124Z,40.77
2018-11-28T23:53:27.180Z,42.83
2018-11-28T23:55:55.224Z,39.37
2018-11-28T23:58:23.284Z,45.70
